<?xml version="1.0" encoding="UTF-8" standalone="no" ?>
<gpx xmlns="http://www.topografix.com/GPX/1/1" xmlns:xsi="http://www.w3.org/2001/XMLSchema-instance" xsi:schemaLocation="http://www.topografix.com/GPX/1/1 http://www.topografix.com/GPX/1/1/gpx.xsd" version="1.1" creator="VisuGPX - https://www.visugpx.com">
  <metadata>
    <name>Norvège</name>
  </metadata>
  <trk>
    <name><![CDATA[Tour d'Europe: étape 045]]></name>
    <trkseg>
      <trkpt lat="64.87152" lon="11.59036">
        <ele>87.521096</ele>
        <time>2020-08-12T07:37:07.716Z</time>
      </trkpt>
      <trkpt lat="64.87002" lon="11.58745">
        <ele>85.64307</ele>
        <time>2020-08-12T07:38:14.728Z</time>
      </trkpt>
      <trkpt lat="64.86768" lon="11.58823">
        <ele>79.076926</ele>
        <time>2020-08-12T07:38:58.715Z</time>
      </trkpt>
      <trkpt lat="64.86693" lon="11.59311">
        <ele>80.586382</ele>
        <time>2020-08-12T07:39:51.716Z</time>
      </trkpt>
      <trkpt lat="64.86545" lon="11.59624">
        <ele>88.143671</ele>
        <time>2020-08-12T07:41:08.713Z</time>
      </trkpt>
      <trkpt lat="64.8636" lon="11.59862">
        <ele>94.765905</ele>
        <time>2020-08-12T07:42:05.720Z</time>
      </trkpt>
      <trkpt lat="64.86475" lon="11.60219">
        <ele>106.600414</ele>
        <time>2020-08-12T07:43:29.729Z</time>
      </trkpt>
      <trkpt lat="64.86581" lon="11.60452">
        <ele>111.749264</ele>
        <time>2020-08-12T07:58:41.729Z</time>
      </trkpt>
      <trkpt lat="64.86756" lon="11.60593">
        <ele>124.028842</ele>
        <time>2020-08-12T08:00:16.724Z</time>
      </trkpt>
      <trkpt lat="64.86843" lon="11.61041">
        <ele>138.479549</ele>
        <time>2020-08-12T08:02:16.729Z</time>
      </trkpt>
      <trkpt lat="64.86987" lon="11.61371">
        <ele>149.232505</ele>
        <time>2020-08-12T08:04:09.737Z</time>
      </trkpt>
      <trkpt lat="64.87132" lon="11.61779">
        <ele>154.016913</ele>
        <time>2020-08-12T08:05:31.721Z</time>
      </trkpt>
      <trkpt lat="64.87166" lon="11.6232">
        <ele>150.794024</ele>
        <time>2020-08-12T08:06:25.722Z</time>
      </trkpt>
      <trkpt lat="64.87282" lon="11.6275">
        <ele>160.103657</ele>
        <time>2020-08-12T08:07:49.724Z</time>
      </trkpt>
      <trkpt lat="64.8743" lon="11.63091">
        <ele>172.586465</ele>
        <time>2020-08-12T08:09:40.729Z</time>
      </trkpt>
      <trkpt lat="64.87594" lon="11.63447">
        <ele>179.120064</ele>
        <time>2020-08-12T08:11:25.729Z</time>
      </trkpt>
      <trkpt lat="64.87749" lon="11.63914">
        <ele>165.284412</ele>
        <time>2020-08-12T08:12:20.732Z</time>
      </trkpt>
      <trkpt lat="64.87848" lon="11.64348">
        <ele>151.501627</ele>
        <time>2020-08-12T08:12:41.747Z</time>
      </trkpt>
      <trkpt lat="64.87659" lon="11.64808">
        <ele>132.935949</ele>
        <time>2020-08-12T08:13:03.720Z</time>
      </trkpt>
      <trkpt lat="64.87695" lon="11.65445">
        <ele>115.391047</ele>
        <time>2020-08-12T08:13:24.736Z</time>
      </trkpt>
      <trkpt lat="64.87805" lon="11.66021">
        <ele>98.906099</ele>
        <time>2020-08-12T08:13:45.728Z</time>
      </trkpt>
      <trkpt lat="64.88028" lon="11.66349">
        <ele>87.170717</ele>
        <time>2020-08-12T08:14:08.723Z</time>
      </trkpt>
      <trkpt lat="64.88238" lon="11.66629">
        <ele>90.48583</ele>
        <time>2020-08-12T08:14:58.724Z</time>
      </trkpt>
      <trkpt lat="64.8847" lon="11.66991">
        <ele>87.787452</ele>
        <time>2020-08-12T08:15:42.757Z</time>
      </trkpt>
      <trkpt lat="64.88677" lon="11.67214">
        <ele>85.814584</ele>
        <time>2020-08-12T08:16:25.735Z</time>
      </trkpt>
      <trkpt lat="64.88956" lon="11.67369">
        <ele>70.39421</ele>
        <time>2020-08-12T08:16:59.731Z</time>
      </trkpt>
      <trkpt lat="64.89221" lon="11.67595">
        <ele>55.72537</ele>
        <time>2020-08-12T08:17:31.737Z</time>
      </trkpt>
      <trkpt lat="64.89446" lon="11.67895">
        <ele>53.377047</ele>
        <time>2020-08-12T08:18:13.748Z</time>
      </trkpt>
      <trkpt lat="64.89578" lon="11.6832">
        <ele>59.627481</ele>
        <time>2020-08-12T08:19:13.731Z</time>
      </trkpt>
      <trkpt lat="64.89657" lon="11.68852">
        <ele>63.611579</ele>
        <time>2020-08-12T08:20:19.736Z</time>
      </trkpt>
      <trkpt lat="64.89723" lon="11.69325">
        <ele>69.140683</ele>
        <time>2020-08-12T08:21:58.729Z</time>
      </trkpt>
      <trkpt lat="64.89792" lon="11.69794">
        <ele>80.993042</ele>
        <time>2020-08-12T08:23:19.728Z</time>
      </trkpt>
      <trkpt lat="64.89877" lon="11.70292">
        <ele>87.194976</ele>
        <time>2020-08-12T08:24:33.715Z</time>
      </trkpt>
      <trkpt lat="64.90031" lon="11.70705">
        <ele>80.802376</ele>
        <time>2020-08-12T08:25:36.793Z</time>
      </trkpt>
      <trkpt lat="64.9016" lon="11.71244">
        <ele>78.063287</ele>
        <time>2020-08-12T08:26:18.753Z</time>
      </trkpt>
      <trkpt lat="64.90244" lon="11.71733">
        <ele>86.210826</ele>
        <time>2020-08-12T08:27:23.722Z</time>
      </trkpt>
      <trkpt lat="64.90367" lon="11.72341">
        <ele>73.472579</ele>
        <time>2020-08-12T08:27:58.740Z</time>
      </trkpt>
      <trkpt lat="64.90537" lon="11.72703">
        <ele>78.236817</ele>
        <time>2020-08-12T08:29:01.722Z</time>
      </trkpt>
      <trkpt lat="64.90658" lon="11.73149">
        <ele>86.162743</ele>
        <time>2020-08-12T08:30:24.732Z</time>
      </trkpt>
      <trkpt lat="64.90818" lon="11.73405">
        <ele>69.208316</ele>
        <time>2020-08-12T08:31:06.735Z</time>
      </trkpt>
      <trkpt lat="64.90909" lon="11.72951">
        <ele>57.299194</ele>
        <time>2020-08-12T08:31:41.763Z</time>
      </trkpt>
      <trkpt lat="64.90813" lon="11.72381">
        <ele>53.745216</ele>
        <time>2020-08-12T08:32:10.726Z</time>
      </trkpt>
      <trkpt lat="64.9078" lon="11.71846">
        <ele>54.262164</ele>
        <time>2020-08-12T08:33:29.751Z</time>
      </trkpt>
      <trkpt lat="64.90788" lon="11.71243">
        <ele>55.401458</ele>
        <time>2020-08-12T08:34:19.817Z</time>
      </trkpt>
      <trkpt lat="64.90708" lon="11.7076">
        <ele>63.830268</ele>
        <time>2020-08-12T08:35:48.723Z</time>
      </trkpt>
      <trkpt lat="64.90743" lon="11.70286">
        <ele>78.752056</ele>
        <time>2020-08-12T08:38:00.757Z</time>
      </trkpt>
      <trkpt lat="64.90895" lon="11.69917">
        <ele>80.090674</ele>
        <time>2020-08-12T08:39:27.755Z</time>
      </trkpt>
      <trkpt lat="64.91081" lon="11.70135">
        <ele>68.231156</ele>
        <time>2020-08-12T08:39:59.751Z</time>
      </trkpt>
      <trkpt lat="64.91212" lon="11.7053">
        <ele>65.508424</ele>
        <time>2020-08-12T08:40:43.731Z</time>
      </trkpt>
      <trkpt lat="64.91378" lon="11.7094">
        <ele>68.827955</ele>
        <time>2020-08-12T08:41:42.731Z</time>
      </trkpt>
      <trkpt lat="64.91556" lon="11.71302">
        <ele>76.406774</ele>
        <time>2020-08-12T08:42:53.778Z</time>
      </trkpt>
      <trkpt lat="64.91742" lon="11.71562">
        <ele>73.629142</ele>
        <time>2020-08-12T08:44:05.733Z</time>
      </trkpt>
      <trkpt lat="64.91933" lon="11.71823">
        <ele>72.219115</ele>
        <time>2020-08-12T08:45:02.733Z</time>
      </trkpt>
      <trkpt lat="64.92109" lon="11.72229">
        <ele>77.730476</ele>
        <time>2020-08-12T08:46:09.740Z</time>
      </trkpt>
      <trkpt lat="64.92283" lon="11.72552">
        <ele>72.756321</ele>
        <time>2020-08-12T08:47:09.773Z</time>
      </trkpt>
      <trkpt lat="64.92395" lon="11.73014">
        <ele>72.587573</ele>
        <time>2020-08-12T08:47:59.746Z</time>
      </trkpt>
      <trkpt lat="64.92477" lon="11.73507">
        <ele>85.749592</ele>
        <time>2020-08-12T08:49:44.734Z</time>
      </trkpt>
      <trkpt lat="64.92601" lon="11.73912">
        <ele>94.110688</ele>
        <time>2020-08-12T08:51:17.738Z</time>
      </trkpt>
      <trkpt lat="64.92708" lon="11.74405">
        <ele>85.297215</ele>
        <time>2020-08-12T08:52:03.734Z</time>
      </trkpt>
      <trkpt lat="64.92881" lon="11.74899">
        <ele>81.77418</ele>
        <time>2020-08-12T08:52:54.724Z</time>
      </trkpt>
      <trkpt lat="64.93051" lon="11.75249">
        <ele>78.070995</ele>
        <time>2020-08-12T08:53:41.736Z</time>
      </trkpt>
      <trkpt lat="64.93208" lon="11.75639">
        <ele>82.127827</ele>
        <time>2020-08-12T08:54:44.752Z</time>
      </trkpt>
      <trkpt lat="64.93345" lon="11.7606">
        <ele>92.120467</ele>
        <time>2020-08-12T08:56:15.729Z</time>
      </trkpt>
      <trkpt lat="64.93499" lon="11.76427">
        <ele>96.362</ele>
        <time>2020-08-12T08:57:43.760Z</time>
      </trkpt>
      <trkpt lat="64.93684" lon="11.76672">
        <ele>95.247796</ele>
        <time>2020-08-12T08:58:53.744Z</time>
      </trkpt>
      <trkpt lat="64.93951" lon="11.76764">
        <ele>93.467728</ele>
        <time>2020-08-12T08:59:41.753Z</time>
      </trkpt>
      <trkpt lat="64.94169" lon="11.76781">
        <ele>93.510628</ele>
        <time>2020-08-12T09:00:57.766Z</time>
      </trkpt>
      <trkpt lat="64.9438" lon="11.76755">
        <ele>96.173085</ele>
        <time>2020-08-12T09:02:10.757Z</time>
      </trkpt>
      <trkpt lat="64.946" lon="11.76855">
        <ele>105.407255</ele>
        <time>2020-08-12T09:04:01.746Z</time>
      </trkpt>
      <trkpt lat="64.94705" lon="11.77282">
        <ele>109.101281</ele>
        <time>2020-08-12T09:04:53.746Z</time>
      </trkpt>
      <trkpt lat="64.94849" lon="11.77668">
        <ele>109.071201</ele>
        <time>2020-08-12T09:06:19.740Z</time>
      </trkpt>
      <trkpt lat="64.95094" lon="11.77948">
        <ele>102.366183</ele>
        <time>2020-08-12T09:07:01.745Z</time>
      </trkpt>
      <trkpt lat="64.95278" lon="11.78233">
        <ele>103.69817</ele>
        <time>2020-08-12T09:07:57.741Z</time>
      </trkpt>
      <trkpt lat="64.95432" lon="11.78057">
        <ele>103.402844</ele>
        <time>2020-08-12T09:08:48.742Z</time>
      </trkpt>
      <trkpt lat="64.95642" lon="11.78098">
        <ele>103.859841</ele>
        <time>2020-08-12T09:09:44.747Z</time>
      </trkpt>
      <trkpt lat="64.95844" lon="11.78271">
        <ele>102.267236</ele>
        <time>2020-08-12T09:10:34.753Z</time>
      </trkpt>
      <trkpt lat="64.96051" lon="11.78578">
        <ele>104.701366</ele>
        <time>2020-08-12T09:11:33.756Z</time>
      </trkpt>
      <trkpt lat="64.96235" lon="11.78882">
        <ele>109.006589</ele>
        <time>2020-08-12T09:12:47.781Z</time>
      </trkpt>
      <trkpt lat="64.96346" lon="11.79345">
        <ele>108.565433</ele>
        <time>2020-08-12T09:13:52.745Z</time>
      </trkpt>
      <trkpt lat="64.96483" lon="11.79743">
        <ele>113.476021</ele>
        <time>2020-08-12T09:15:03.741Z</time>
      </trkpt>
      <trkpt lat="64.96595" lon="11.80181">
        <ele>117.752873</ele>
        <time>2020-08-12T09:16:20.758Z</time>
      </trkpt>
      <trkpt lat="64.96699" lon="11.8062">
        <ele>122.848261</ele>
        <time>2020-08-12T09:18:01.745Z</time>
      </trkpt>
      <trkpt lat="64.96855" lon="11.81052">
        <ele>121.289954</ele>
        <time>2020-08-12T09:19:13.758Z</time>
      </trkpt>
      <trkpt lat="64.97007" lon="11.8092">
        <ele>113.002463</ele>
        <time>2020-08-12T09:19:34.746Z</time>
      </trkpt>
      <trkpt lat="64.97142" lon="11.8059">
        <ele>103.37973</ele>
        <time>2020-08-12T09:19:55.736Z</time>
      </trkpt>
      <trkpt lat="64.97313" lon="11.803">
        <ele>93.181152</ele>
        <time>2020-08-12T09:20:18.747Z</time>
      </trkpt>
      <trkpt lat="64.97423" lon="11.79934">
        <ele>82.798294</ele>
        <time>2020-08-12T09:20:40.738Z</time>
      </trkpt>
      <trkpt lat="64.97604" lon="11.79772">
        <ele>71.524198</ele>
        <time>2020-08-12T09:21:01.734Z</time>
      </trkpt>
      <trkpt lat="64.97805" lon="11.79941">
        <ele>62.832544</ele>
        <time>2020-08-12T09:21:23.750Z</time>
      </trkpt>
      <trkpt lat="64.98088" lon="11.79992">
        <ele>54.54319</ele>
        <time>2020-08-12T09:22:03.737Z</time>
      </trkpt>
      <trkpt lat="64.98252" lon="11.79649">
        <ele>59.194906</ele>
        <time>2020-08-12T09:23:02.784Z</time>
      </trkpt>
      <trkpt lat="64.98215" lon="11.79083">
        <ele>61.444561</ele>
        <time>2020-08-12T09:24:05.745Z</time>
      </trkpt>
      <trkpt lat="64.98182" lon="11.78588">
        <ele>66.527299</ele>
        <time>2020-08-12T09:25:34.782Z</time>
      </trkpt>
      <trkpt lat="64.98097" lon="11.78011">
        <ele>62.723768</ele>
        <time>2020-08-12T09:26:33.754Z</time>
      </trkpt>
      <trkpt lat="64.98022" lon="11.77518">
        <ele>50.003909</ele>
        <time>2020-08-12T09:26:56.746Z</time>
      </trkpt>
      <trkpt lat="64.98059" lon="11.76976">
        <ele>45.864044</ele>
        <time>2020-08-12T09:27:32.748Z</time>
      </trkpt>
      <trkpt lat="64.98234" lon="11.7663">
        <ele>48.179508</ele>
        <time>2020-08-12T09:28:38.749Z</time>
      </trkpt>
      <trkpt lat="64.98361" lon="11.76156">
        <ele>52.795798</ele>
        <time>2020-08-12T09:29:35.748Z</time>
      </trkpt>
      <trkpt lat="64.98494" lon="11.75849">
        <ele>66.214535</ele>
        <time>2020-08-12T09:31:22.764Z</time>
      </trkpt>
      <trkpt lat="64.9867" lon="11.75993">
        <ele>75.352791</ele>
        <time>2020-08-12T09:33:33.729Z</time>
      </trkpt>
      <trkpt lat="64.98739" lon="11.76454">
        <ele>89.883631</ele>
        <time>2020-08-12T09:35:48.771Z</time>
      </trkpt>
      <trkpt lat="64.98873" lon="11.76801">
        <ele>102.27416</ele>
        <time>2020-08-12T09:38:01.764Z</time>
      </trkpt>
      <trkpt lat="64.98968" lon="11.77224">
        <ele>113.995282</ele>
        <time>2020-08-12T09:40:02.757Z</time>
      </trkpt>
      <trkpt lat="64.99057" lon="11.77699">
        <ele>117.579749</ele>
        <time>2020-08-12T09:41:42.755Z</time>
      </trkpt>
      <trkpt lat="64.99081" lon="11.78242">
        <ele>109.100243</ele>
        <time>2020-08-12T09:42:28.772Z</time>
      </trkpt>
      <trkpt lat="64.99048" lon="11.78802">
        <ele>91.913594</ele>
        <time>2020-08-12T09:42:54.798Z</time>
      </trkpt>
      <trkpt lat="64.99216" lon="11.79187">
        <ele>76.711062</ele>
        <time>2020-08-12T09:43:17.778Z</time>
      </trkpt>
      <trkpt lat="64.99396" lon="11.79525">
        <ele>68.290615</ele>
        <time>2020-08-12T09:43:48.742Z</time>
      </trkpt>
      <trkpt lat="64.99601" lon="11.79819">
        <ele>67.385156</ele>
        <time>2020-08-12T09:44:30.753Z</time>
      </trkpt>
      <trkpt lat="64.99886" lon="11.79894">
        <ele>54.376213</ele>
        <time>2020-08-12T09:45:06.768Z</time>
      </trkpt>
      <trkpt lat="65.001" lon="11.79723">
        <ele>58.079538</ele>
        <time>2020-08-12T09:46:15.756Z</time>
      </trkpt>
      <trkpt lat="65.00289" lon="11.79805">
        <ele>67.060022</ele>
        <time>2020-08-12T09:49:21.742Z</time>
      </trkpt>
      <trkpt lat="65.00483" lon="11.79842">
        <ele>82.218839</ele>
        <time>2020-08-12T09:51:51.754Z</time>
      </trkpt>
      <trkpt lat="65.00684" lon="11.8021">
        <ele>78.893613</ele>
        <time>2020-08-12T09:53:12.754Z</time>
      </trkpt>
      <trkpt lat="65.00916" lon="11.80553">
        <ele>59.700765</ele>
        <time>2020-08-12T09:53:35.757Z</time>
      </trkpt>
      <trkpt lat="65.01096" lon="11.80917">
        <ele>47.239999</ele>
        <time>2020-08-12T09:54:01.735Z</time>
      </trkpt>
      <trkpt lat="65.01219" lon="11.81377">
        <ele>50.750733</ele>
        <time>2020-08-12T09:55:04.759Z</time>
      </trkpt>
      <trkpt lat="65.01413" lon="11.81855">
        <ele>46.905405</ele>
        <time>2020-08-12T09:55:53.735Z</time>
      </trkpt>
      <trkpt lat="65.01551" lon="11.82313">
        <ele>55.325941</ele>
        <time>2020-08-12T09:56:49.739Z</time>
      </trkpt>
      <trkpt lat="65.0167" lon="11.82696">
        <ele>69.812495</ele>
        <time>2020-08-12T09:58:58.751Z</time>
      </trkpt>
      <trkpt lat="65.01747" lon="11.83212">
        <ele>63.057489</ele>
        <time>2020-08-12T10:00:23.752Z</time>
      </trkpt>
      <trkpt lat="65.01864" lon="11.83714">
        <ele>58.397752</ele>
        <time>2020-08-12T10:01:04.766Z</time>
      </trkpt>
      <trkpt lat="65.02015" lon="11.84083">
        <ele>56.732711</ele>
        <time>2020-08-12T10:01:46.769Z</time>
      </trkpt>
      <trkpt lat="65.02198" lon="11.84366">
        <ele>70.394746</ele>
        <time>2020-08-12T10:03:48.741Z</time>
      </trkpt>
      <trkpt lat="65.02382" lon="11.84736">
        <ele>69.730783</ele>
        <time>2020-08-12T10:05:07.757Z</time>
      </trkpt>
      <trkpt lat="65.02602" lon="11.85159">
        <ele>63.507186</ele>
        <time>2020-08-12T10:05:47.756Z</time>
      </trkpt>
      <trkpt lat="65.02792" lon="11.85524">
        <ele>62.292554</ele>
        <time>2020-08-12T10:06:38.755Z</time>
      </trkpt>
      <trkpt lat="65.02976" lon="11.85881">
        <ele>56.375018</ele>
        <time>2020-08-12T10:07:26.753Z</time>
      </trkpt>
      <trkpt lat="65.03173" lon="11.86271">
        <ele>54.019725</ele>
        <time>2020-08-12T10:08:14.777Z</time>
      </trkpt>
      <trkpt lat="65.03355" lon="11.8663">
        <ele>57.02664</ele>
        <time>2020-08-12T10:09:11.753Z</time>
      </trkpt>
      <trkpt lat="65.03508" lon="11.86996">
        <ele>63.693365</ele>
        <time>2020-08-12T10:10:32.772Z</time>
      </trkpt>
      <trkpt lat="65.03625" lon="11.87405">
        <ele>66.374499</ele>
        <time>2020-08-12T10:11:49.745Z</time>
      </trkpt>
      <trkpt lat="65.03786" lon="11.87814">
        <ele>71.590691</ele>
        <time>2020-08-12T10:13:09.753Z</time>
      </trkpt>
      <trkpt lat="65.03927" lon="11.88182">
        <ele>76.440852</ele>
        <time>2020-08-12T10:14:51.746Z</time>
      </trkpt>
      <trkpt lat="65.04105" lon="11.88647">
        <ele>69.505945</ele>
        <time>2020-08-12T10:15:33.749Z</time>
      </trkpt>
      <trkpt lat="65.04281" lon="11.8904">
        <ele>66.538612</ele>
        <time>2020-08-12T10:16:31.738Z</time>
      </trkpt>
      <trkpt lat="65.04446" lon="11.89335">
        <ele>77.125096</ele>
        <time>2020-08-12T10:18:08.762Z</time>
      </trkpt>
      <trkpt lat="65.04674" lon="11.89433">
        <ele>72.899343</ele>
        <time>2020-08-12T10:19:04.774Z</time>
      </trkpt>
      <trkpt lat="65.04843" lon="11.89974">
        <ele>54.580367</ele>
        <time>2020-08-12T10:19:26.741Z</time>
      </trkpt>
      <trkpt lat="65.04975" lon="11.90502">
        <ele>46.6213</ele>
        <time>2020-08-12T10:20:06.765Z</time>
      </trkpt>
      <trkpt lat="65.05095" lon="11.90931">
        <ele>50.086468</ele>
        <time>2020-08-12T10:21:03.739Z</time>
      </trkpt>
      <trkpt lat="65.05266" lon="11.91285">
        <ele>52.970216</ele>
        <time>2020-08-12T10:22:17.748Z</time>
      </trkpt>
      <trkpt lat="65.05419" lon="11.91662">
        <ele>61.943738</ele>
        <time>2020-08-12T10:23:32.753Z</time>
      </trkpt>
      <trkpt lat="65.05551" lon="11.92028">
        <ele>75.362544</ele>
        <time>2020-08-12T10:25:50.769Z</time>
      </trkpt>
      <trkpt lat="65.05657" lon="11.92454">
        <ele>82.956254</ele>
        <time>2020-08-12T10:38:01.784Z</time>
      </trkpt>
      <trkpt lat="65.05641" lon="11.93008">
        <ele>74.72017</ele>
        <time>2020-08-12T10:38:27.764Z</time>
      </trkpt>
      <trkpt lat="65.05743" lon="11.93519">
        <ele>57.375703</ele>
        <time>2020-08-12T10:38:48.767Z</time>
      </trkpt>
      <trkpt lat="65.0588" lon="11.93958">
        <ele>42.100373</ele>
        <time>2020-08-12T10:39:24.757Z</time>
      </trkpt>
      <trkpt lat="65.05914" lon="11.94476">
        <ele>51.759474</ele>
        <time>2020-08-12T10:40:27.749Z</time>
      </trkpt>
      <trkpt lat="65.05915" lon="11.95079">
        <ele>46.27144</ele>
        <time>2020-08-12T10:41:10.749Z</time>
      </trkpt>
      <trkpt lat="65.06131" lon="11.95375">
        <ele>40.72819</ele>
        <time>2020-08-12T10:41:54.742Z</time>
      </trkpt>
      <trkpt lat="65.0637" lon="11.95437">
        <ele>40.527337</ele>
        <time>2020-08-12T10:42:54.738Z</time>
      </trkpt>
      <trkpt lat="65.0659" lon="11.9528">
        <ele>45.437157</ele>
        <time>2020-08-12T10:43:57.748Z</time>
      </trkpt>
      <trkpt lat="65.068" lon="11.95108">
        <ele>53.325536</ele>
        <time>2020-08-12T10:45:27.765Z</time>
      </trkpt>
      <trkpt lat="65.0706" lon="11.95032">
        <ele>46.945199</ele>
        <time>2020-08-12T10:46:22.773Z</time>
      </trkpt>
      <trkpt lat="65.07284" lon="11.95265">
        <ele>41.933253</ele>
        <time>2020-08-12T10:47:09.749Z</time>
      </trkpt>
      <trkpt lat="65.07477" lon="11.95508">
        <ele>52.266103</ele>
        <time>2020-08-12T10:48:39.760Z</time>
      </trkpt>
      <trkpt lat="65.07521" lon="11.95987">
        <ele>65.484218</ele>
        <time>2020-08-12T10:50:31.783Z</time>
      </trkpt>
      <trkpt lat="65.07642" lon="11.96422">
        <ele>78.896651</ele>
        <time>2020-08-12T10:52:22.749Z</time>
      </trkpt>
      <trkpt lat="65.07756" lon="11.9683">
        <ele>89.010757</ele>
        <time>2020-08-12T10:54:15.763Z</time>
      </trkpt>
      <trkpt lat="65.0785" lon="11.97303">
        <ele>90.917728</ele>
        <time>2020-08-12T10:55:44.822Z</time>
      </trkpt>
      <trkpt lat="65.07945" lon="11.97767">
        <ele>98.781266</ele>
        <time>2020-08-12T10:57:36.751Z</time>
      </trkpt>
      <trkpt lat="65.08037" lon="11.98211">
        <ele>108.902209</ele>
        <time>2020-08-12T10:59:30.770Z</time>
      </trkpt>
      <trkpt lat="65.08141" lon="11.98713">
        <ele>98.379197</ele>
        <time>2020-08-12T11:00:03.745Z</time>
      </trkpt>
      <trkpt lat="65.0824" lon="11.99223">
        <ele>92.212138</ele>
        <time>2020-08-12T11:00:37.753Z</time>
      </trkpt>
      <trkpt lat="65.08345" lon="11.99712">
        <ele>96.823999</ele>
        <time>2020-08-12T11:01:37.764Z</time>
      </trkpt>
      <trkpt lat="65.08448" lon="12.00235">
        <ele>94.765909</ele>
        <time>2020-08-12T11:02:35.745Z</time>
      </trkpt>
      <trkpt lat="65.08554" lon="12.00758">
        <ele>100.390387</ele>
        <time>2020-08-12T11:03:34.753Z</time>
      </trkpt>
      <trkpt lat="65.08645" lon="12.0121">
        <ele>104.843004</ele>
        <time>2020-08-12T11:04:58.755Z</time>
      </trkpt>
      <trkpt lat="65.0873" lon="12.01795">
        <ele>97.70686</ele>
        <time>2020-08-12T11:05:49.751Z</time>
      </trkpt>
      <trkpt lat="65.08647" lon="12.02533">
        <ele>77.449953</ele>
        <time>2020-08-12T11:06:35.782Z</time>
      </trkpt>
      <trkpt lat="65.08549" lon="12.03096">
        <ele>66.499548</ele>
        <time>2020-08-12T11:07:08.764Z</time>
      </trkpt>
      <trkpt lat="65.08336" lon="12.03378">
        <ele>66.885594</ele>
        <time>2020-08-12T11:08:01.770Z</time>
      </trkpt>
      <trkpt lat="65.081" lon="12.03485">
        <ele>59.750664</ele>
        <time>2020-08-12T11:08:24.790Z</time>
      </trkpt>
      <trkpt lat="65.07894" lon="12.03769">
        <ele>54.781788</ele>
        <time>2020-08-12T11:08:53.747Z</time>
      </trkpt>
      <trkpt lat="65.07686" lon="12.03889">
        <ele>61.811212</ele>
        <time>2020-08-12T11:10:15.753Z</time>
      </trkpt>
      <trkpt lat="65.07554" lon="12.04327">
        <ele>60.338455</ele>
        <time>2020-08-12T11:11:29.774Z</time>
      </trkpt>
      <trkpt lat="65.07561" lon="12.04875">
        <ele>47.011112</ele>
        <time>2020-08-12T11:11:59.748Z</time>
      </trkpt>
      <trkpt lat="65.07585" lon="12.05463">
        <ele>45.763871</ele>
        <time>2020-08-12T11:12:55.738Z</time>
      </trkpt>
      <trkpt lat="65.07604" lon="12.06023">
        <ele>49.700213</ele>
        <time>2020-08-12T11:14:09.741Z</time>
      </trkpt>
      <trkpt lat="65.07699" lon="12.06512">
        <ele>50.786321</ele>
        <time>2020-08-12T11:15:09.794Z</time>
      </trkpt>
      <trkpt lat="65.0778" lon="12.07025">
        <ele>50.837443</ele>
        <time>2020-08-12T11:16:04.754Z</time>
      </trkpt>
      <trkpt lat="65.07725" lon="12.07522">
        <ele>51.14817</ele>
        <time>2020-08-12T11:17:16.743Z</time>
      </trkpt>
      <trkpt lat="65.07644" lon="12.07991">
        <ele>64.000599</ele>
        <time>2020-08-12T11:19:03.765Z</time>
      </trkpt>
      <trkpt lat="65.07591" lon="12.08469">
        <ele>69.292215</ele>
        <time>2020-08-12T11:20:41.772Z</time>
      </trkpt>
      <trkpt lat="65.07656" lon="12.08953">
        <ele>74.392227</ele>
        <time>2020-08-12T11:22:19.754Z</time>
      </trkpt>
      <trkpt lat="65.07802" lon="12.09264">
        <ele>92.412793</ele>
        <time>2020-08-12T11:24:19.791Z</time>
      </trkpt>
      <trkpt lat="65.08002" lon="12.09141">
        <ele>111.277548</ele>
        <time>2020-08-12T11:26:31.756Z</time>
      </trkpt>
      <trkpt lat="65.08192" lon="12.08885">
        <ele>125.29346</ele>
        <time>2020-08-12T11:28:53.788Z</time>
      </trkpt>
      <trkpt lat="65.08397" lon="12.08857">
        <ele>137.01596</ele>
        <time>2020-08-12T11:31:00.753Z</time>
      </trkpt>
      <trkpt lat="65.08588" lon="12.08664">
        <ele>143.846012</ele>
        <time>2020-08-12T11:32:34.765Z</time>
      </trkpt>
      <trkpt lat="65.08762" lon="12.0835">
        <ele>150.581054</ele>
        <time>2020-08-12T11:34:13.806Z</time>
      </trkpt>
      <trkpt lat="65.08962" lon="12.0837">
        <ele>154.695847</ele>
        <time>2020-08-12T11:35:45.746Z</time>
      </trkpt>
      <trkpt lat="65.09156" lon="12.08603">
        <ele>155.583432</ele>
        <time>2020-08-12T11:36:59.749Z</time>
      </trkpt>
      <trkpt lat="65.09379" lon="12.08682">
        <ele>161.747517</ele>
        <time>2020-08-12T11:38:03.761Z</time>
      </trkpt>
      <trkpt lat="65.09591" lon="12.08722">
        <ele>158.74086</ele>
        <time>2020-08-12T11:38:45.774Z</time>
      </trkpt>
      <trkpt lat="65.098" lon="12.08887">
        <ele>153.268573</ele>
        <time>2020-08-12T11:39:34.774Z</time>
      </trkpt>
      <trkpt lat="65.1" lon="12.09215">
        <ele>144.626149</ele>
        <time>2020-08-12T11:40:18.766Z</time>
      </trkpt>
      <trkpt lat="65.10297" lon="12.09273">
        <ele>140.194102</ele>
        <time>2020-08-12T11:41:00.811Z</time>
      </trkpt>
      <trkpt lat="65.10492" lon="12.09132">
        <ele>147.909509</ele>
        <time>2020-08-12T11:42:11.787Z</time>
      </trkpt>
      <trkpt lat="65.10682" lon="12.09183">
        <ele>147.445479</ele>
        <time>2020-08-12T11:43:35.778Z</time>
      </trkpt>
      <trkpt lat="65.10761" lon="12.09743">
        <ele>133.958956</ele>
        <time>2020-08-12T11:44:00.769Z</time>
      </trkpt>
      <trkpt lat="65.10945" lon="12.10212">
        <ele>110.489206</ele>
        <time>2020-08-12T11:44:21.767Z</time>
      </trkpt>
      <trkpt lat="65.11199" lon="12.10569">
        <ele>89.068552</ele>
        <time>2020-08-12T11:44:43.774Z</time>
      </trkpt>
      <trkpt lat="65.11418" lon="12.11019">
        <ele>66.796267</ele>
        <time>2020-08-12T11:45:04.762Z</time>
      </trkpt>
      <trkpt lat="65.11577" lon="12.11606">
        <ele>45.905641</ele>
        <time>2020-08-12T11:45:26.757Z</time>
      </trkpt>
      <trkpt lat="65.11655" lon="12.12161">
        <ele>51.301778</ele>
        <time>2020-08-12T11:46:33.770Z</time>
      </trkpt>
      <trkpt lat="65.12032" lon="12.13517">
        <ele>54.00347</ele>
        <time>2020-08-12T11:49:48.759Z</time>
      </trkpt>
      <trkpt lat="65.12161" lon="12.13978">
        <ele>61.133389</ele>
        <time>2020-08-12T11:51:15.806Z</time>
      </trkpt>
      <trkpt lat="65.12188" lon="12.14575">
        <ele>53.663649</ele>
        <time>2020-08-12T11:51:50.762Z</time>
      </trkpt>
      <trkpt lat="65.12184" lon="12.15159">
        <ele>44.082751</ele>
        <time>2020-08-12T11:52:16.753Z</time>
      </trkpt>
      <trkpt lat="65.12169" lon="12.15764">
        <ele>42.949834</ele>
        <time>2020-08-12T11:53:02.769Z</time>
      </trkpt>
      <trkpt lat="65.12154" lon="12.16369">
        <ele>44.368356</ele>
        <time>2020-08-12T11:53:56.763Z</time>
      </trkpt>
      <trkpt lat="65.12112" lon="12.16918">
        <ele>49.39503</ele>
        <time>2020-08-12T11:54:40.785Z</time>
      </trkpt>
      <trkpt lat="65.12323" lon="12.1672">
        <ele>50.030419</ele>
        <time>2020-08-12T11:55:39.782Z</time>
      </trkpt>
      <trkpt lat="65.12526" lon="12.16438">
        <ele>52.316372</ele>
        <time>2020-08-12T11:56:29.793Z</time>
      </trkpt>
      <trkpt lat="65.12726" lon="12.16032">
        <ele>64.436145</ele>
        <time>2020-08-12T11:58:34.767Z</time>
      </trkpt>
      <trkpt lat="65.12853" lon="12.15555">
        <ele>45.478327</ele>
        <time>2020-08-12T11:59:07.766Z</time>
      </trkpt>
      <trkpt lat="65.12746" lon="12.15014">
        <ele>43.547291</ele>
        <time>2020-08-12T11:59:56.797Z</time>
      </trkpt>
      <trkpt lat="65.12663" lon="12.14511">
        <ele>51.25458</ele>
        <time>2020-08-12T12:01:01.807Z</time>
      </trkpt>
      <trkpt lat="65.12572" lon="12.14035">
        <ele>57.103123</ele>
        <time>2020-08-12T12:02:13.769Z</time>
      </trkpt>
      <trkpt lat="65.1254" lon="12.13534">
        <ele>62.810361</ele>
        <time>2020-08-12T12:03:24.786Z</time>
      </trkpt>
      <trkpt lat="65.12484" lon="12.13055">
        <ele>68.883734</ele>
        <time>2020-08-12T12:05:06.761Z</time>
      </trkpt>
      <trkpt lat="65.12461" lon="12.12525">
        <ele>77.740066</ele>
        <time>2020-08-12T12:06:56.753Z</time>
      </trkpt>
      <trkpt lat="65.12427" lon="12.12044">
        <ele>83.32015</ele>
        <time>2020-08-12T12:08:05.796Z</time>
      </trkpt>
      <trkpt lat="65.12826" lon="12.11624">
        <ele>66.315873</ele>
        <time>2020-08-12T12:10:03.785Z</time>
      </trkpt>
      <trkpt lat="65.13058" lon="12.11823">
        <ele>65.265052</ele>
        <time>2020-08-12T12:10:39.757Z</time>
      </trkpt>
      <trkpt lat="65.13292" lon="12.11785">
        <ele>62.795845</ele>
        <time>2020-08-12T12:11:33.781Z</time>
      </trkpt>
      <trkpt lat="65.13532" lon="12.11716">
        <ele>61.090318</ele>
        <time>2020-08-12T12:12:16.757Z</time>
      </trkpt>
      <trkpt lat="65.13768" lon="12.11679">
        <ele>64.750335</ele>
        <time>2020-08-12T12:13:30.768Z</time>
      </trkpt>
      <trkpt lat="65.14075" lon="12.11775">
        <ele>49.671527</ele>
        <time>2020-08-12T12:14:13.794Z</time>
      </trkpt>
      <trkpt lat="65.1435" lon="12.11737">
        <ele>43.648139</ele>
        <time>2020-08-12T12:14:55.757Z</time>
      </trkpt>
      <trkpt lat="65.1457" lon="12.11605">
        <ele>51.27271</ele>
        <time>2020-08-12T12:16:11.791Z</time>
      </trkpt>
      <trkpt lat="65.14796" lon="12.11574">
        <ele>46.847516</ele>
        <time>2020-08-12T12:17:02.776Z</time>
      </trkpt>
      <trkpt lat="65.15028" lon="12.11586">
        <ele>43.978299</ele>
        <time>2020-08-12T12:17:44.756Z</time>
      </trkpt>
      <trkpt lat="65.1523" lon="12.11799">
        <ele>45.7083</ele>
        <time>2020-08-12T12:18:32.784Z</time>
      </trkpt>
      <trkpt lat="65.15442" lon="12.12002">
        <ele>46.994997</ele>
        <time>2020-08-12T12:19:33.801Z</time>
      </trkpt>
      <trkpt lat="65.15681" lon="12.12106">
        <ele>47.671583</ele>
        <time>2020-08-12T12:20:22.784Z</time>
      </trkpt>
      <trkpt lat="65.15894" lon="12.12039">
        <ele>44.787321</ele>
        <time>2020-08-12T12:21:11.767Z</time>
      </trkpt>
      <trkpt lat="65.16107" lon="12.11865">
        <ele>48.545255</ele>
        <time>2020-08-12T12:22:04.767Z</time>
      </trkpt>
      <trkpt lat="65.16334" lon="12.11843">
        <ele>46.679618</ele>
        <time>2020-08-12T12:23:00.754Z</time>
      </trkpt>
      <trkpt lat="65.16583" lon="12.11798">
        <ele>45.712139</ele>
        <time>2020-08-12T12:24:06.757Z</time>
      </trkpt>
      <trkpt lat="65.16792" lon="12.11701">
        <ele>43.980406</ele>
        <time>2020-08-12T12:25:03.773Z</time>
      </trkpt>
      <trkpt lat="65.17008" lon="12.11583">
        <ele>43.145894</ele>
        <time>2020-08-12T12:25:55.806Z</time>
      </trkpt>
      <trkpt lat="65.17253" lon="12.11578">
        <ele>44.719452</ele>
        <time>2020-08-12T12:27:01.766Z</time>
      </trkpt>
      <trkpt lat="65.17462" lon="12.1167">
        <ele>42.491112</ele>
        <time>2020-08-12T12:28:01.782Z</time>
      </trkpt>
      <trkpt lat="65.17666" lon="12.11893">
        <ele>45.799966</ele>
        <time>2020-08-12T12:29:01.768Z</time>
      </trkpt>
      <trkpt lat="65.17876" lon="12.12116">
        <ele>47.97185</ele>
        <time>2020-08-12T12:30:07.766Z</time>
      </trkpt>
      <trkpt lat="65.18066" lon="12.1232">
        <ele>52.594944</ele>
        <time>2020-08-12T12:31:12.751Z</time>
      </trkpt>
      <trkpt lat="65.18285" lon="12.12438">
        <ele>55.183069</ele>
        <time>2020-08-12T12:32:26.757Z</time>
      </trkpt>
      <trkpt lat="65.1845" lon="12.12014">
        <ele>49.842597</ele>
        <time>2020-08-12T12:33:14.758Z</time>
      </trkpt>
      <trkpt lat="65.18342" lon="12.11434">
        <ele>44.043795</ele>
        <time>2020-08-12T12:33:56.774Z</time>
      </trkpt>
      <trkpt lat="65.18103" lon="12.10842">
        <ele>43.971004</ele>
        <time>2020-08-12T12:47:25.776Z</time>
      </trkpt>
      <trkpt lat="65.18225" lon="12.10159">
        <ele>43.72728</ele>
        <time>2020-08-12T12:48:27.780Z</time>
      </trkpt>
      <trkpt lat="65.18394" lon="12.09791">
        <ele>39.757251</ele>
        <time>2020-08-12T12:49:09.763Z</time>
      </trkpt>
      <trkpt lat="65.18573" lon="12.094">
        <ele>38.861098</ele>
        <time>2020-08-12T12:49:55.767Z</time>
      </trkpt>
      <trkpt lat="65.1875" lon="12.09029">
        <ele>35.00961</ele>
        <time>2020-08-12T12:50:37.773Z</time>
      </trkpt>
      <trkpt lat="65.18923" lon="12.08642">
        <ele>38.171384</ele>
        <time>2020-08-12T12:51:19.787Z</time>
      </trkpt>
      <trkpt lat="65.19117" lon="12.08239">
        <ele>43.549515</ele>
        <time>2020-08-12T12:52:03.778Z</time>
      </trkpt>
      <trkpt lat="65.19287" lon="12.07865">
        <ele>40.452732</ele>
        <time>2020-08-12T12:52:45.772Z</time>
      </trkpt>
      <trkpt lat="65.19467" lon="12.07484">
        <ele>39.704317</ele>
        <time>2020-08-12T12:53:27.786Z</time>
      </trkpt>
      <trkpt lat="65.19649" lon="12.07096">
        <ele>42.152998</ele>
        <time>2020-08-12T12:54:11.774Z</time>
      </trkpt>
      <trkpt lat="65.1983" lon="12.06679">
        <ele>42.535356</ele>
        <time>2020-08-12T12:54:55.753Z</time>
      </trkpt>
      <trkpt lat="65.20014" lon="12.06306">
        <ele>41.297646</ele>
        <time>2020-08-12T12:55:40.753Z</time>
      </trkpt>
      <trkpt lat="65.2025" lon="12.05814">
        <ele>43.825827</ele>
        <time>2020-08-12T12:56:33.752Z</time>
      </trkpt>
      <trkpt lat="65.20513" lon="12.05259">
        <ele>27.211227</ele>
        <time>2020-08-12T12:57:33.749Z</time>
      </trkpt>
      <trkpt lat="65.20758" lon="12.0486">
        <ele>29.781728</ele>
        <time>2020-08-12T12:58:30.781Z</time>
      </trkpt>
      <trkpt lat="65.20975" lon="12.04561">
        <ele>31.162963</ele>
        <time>2020-08-12T12:59:23.765Z</time>
      </trkpt>
      <trkpt lat="65.21613" lon="12.04074">
        <ele>35.762128</ele>
        <time>2020-08-12T13:06:53.264Z</time>
      </trkpt>
      <trkpt lat="65.21536" lon="12.04277">
        <ele>39.727855</ele>
        <time>2020-08-12T13:09:37.246Z</time>
      </trkpt>
    </trkseg>
  </trk>
</gpx>